sensor_id;sensor_type;location;lat;lon;timestamp;pressure;altitude;pressure_sealevel;temperature;humidity
41312;BME280;27061;41.648;24.568;2024-01-06T00:00:39;85744.00;;;4.94;47.17
41312;BME280;27061;41.648;24.568;2024-01-06T00:03:09;85780.47;;;5.17;47.56
41312;BME280;27061;41.648;24.568;2024-01-06T00:05:37;85785.94;;;5.14;48.40
41312;BME280;27061;41.648;24.568;2024-01-06T00:08:04;85776.97;;;4.98;47.81
41312;BME280;27061;41.648;24.568;2024-01-06T00:10:33;85792.78;;;5.13;47.01
41312;BME280;27061;41.648;24.568;2024-01-06T00:13:00;85675.88;;;4.39;47.79
41312;BME280;27061;41.648;24.568;2024-01-06T00:15:28;85782.50;;;5.08;45.86
41312;BME280;27061;41.648;24.568;2024-01-06T00:17:55;85736.28;;;4.60;44.65
41312;BME280;27061;41.648;24.568;2024-01-06T00:20:22;85752.16;;;4.79;46.45
41312;BME280;27061;41.648;24.568;2024-01-06T00:22:50;85772.16;;;5.02;45.80
41312;BME280;27061;41.648;24.568;2024-01-06T00:25:17;85733.59;;;4.70;46.43
41312;BME280;27061;41.648;24.568;2024-01-06T00:27:44;85693.75;;;4.53;46.57
41312;BME280;27061;41.648;24.568;2024-01-06T00:30:12;85776.25;;;4.93;47.59
41312;BME280;27061;41.648;24.568;2024-01-06T00:32:40;85765.91;;;4.86;46.51
41312;BME280;27061;41.648;24.568;2024-01-06T00:35:08;85780.38;;;5.00;45.96
41312;BME280;27061;41.648;24.568;2024-01-06T00:37:35;85716.44;;;4.63;44.37
41312;BME280;27061;41.648;24.568;2024-01-06T00:40:02;85737.84;;;4.93;42.94
41312;BME280;27061;41.648;24.568;2024-01-06T00:42:30;85716.59;;;4.96;44.37
41312;BME280;27061;41.648;24.568;2024-01-06T00:44:58;85711.81;;;5.04;43.16
41312;BME280;27061;41.648;24.568;2024-01-06T00:47:25;85783.38;;;5.59;44.10
41312;BME280;27061;41.648;24.568;2024-01-06T00:49:52;85754.47;;;5.38;43.97
41312;BME280;27061;41.648;24.568;2024-01-06T00:52:20;85771.66;;;5.52;44.69
41312;BME280;27061;41.648;24.568;2024-01-06T00:54:47;85740.72;;;5.34;46.19
41312;BME280;27061;41.648;24.568;2024-01-06T00:57:15;85771.03;;;5.60;43.68
41312;BME280;27061;41.648;24.568;2024-01-06T00:59:42;85674.75;;;4.99;45.20
41312;BME280;27061;41.648;24.568;2024-01-06T01:02:10;85735.28;;;5.40;46.01
41312;BME280;27061;41.648;24.568;2024-01-06T01:04:37;85683.66;;;5.00;45.57
41312;BME280;27061;41.648;24.568;2024-01-06T01:07:04;85764.16;;;5.65;44.65
41312;BME280;27061;41.648;24.568;2024-01-06T01:09:31;85756.59;;;5.60;44.75
41312;BME280;27061;41.648;24.568;2024-01-06T01:11:59;85754.53;;;5.66;45.34
41312;BME280;27061;41.648;24.568;2024-01-06T01:14:26;85755.91;;;5.65;45.96
41312;BME280;27061;41.648;24.568;2024-01-06T01:16:53;85723.59;;;5.39;43.78
41312;BME280;27061;41.648;24.568;2024-01-06T01:19:21;85750.41;;;5.55;45.75
41312;BME280;27061;41.648;24.568;2024-01-06T01:21:48;85754.53;;;5.62;46.67
41312;BME280;27061;41.648;24.568;2024-01-06T01:24:15;85713.28;;;5.32;45.97
41312;BME280;27061;41.648;24.568;2024-01-06T01:26:43;85642.47;;;4.88;44.94
41312;BME280;27061;41.648;24.568;2024-01-06T01:29:10;85744.91;;;5.55;46.50
41312;BME280;27061;41.648;24.568;2024-01-06T01:31:37;85728.44;;;5.59;46.96
41312;BME280;27061;41.648;24.568;2024-01-06T01:34:05;85619.16;;;4.83;47.46
41312;BME280;27061;41.648;24.568;2024-01-06T01:36:32;85711.94;;;5.47;47.47
41312;BME280;27061;41.648;24.568;2024-01-06T01:39:00;85564.16;;;4.34;47.30
41312;BME280;27061;41.648;24.568;2024-01-06T01:41:27;85680.38;;;5.40;47.31
41312;BME280;27061;41.648;24.568;2024-01-06T01:43:54;85637.69;;;4.92;47.55
41312;BME280;27061;41.648;24.568;2024-01-06T01:46:29;85716.78;;;5.67;47.96
41312;BME280;27061;41.648;24.568;2024-01-06T01:48:58;85694.09;;;5.52;47.75
41312;BME280;27061;41.648;24.568;2024-01-06T01:51:32;85705.13;;;5.60;47.73
41312;BME280;27061;41.648;24.568;2024-01-06T01:54:01;85708.53;;;5.61;47.87
41312;BME280;27061;41.648;24.568;2024-01-06T01:56:31;85708.53;;;5.57;48.85
41312;BME280;27061;41.648;24.568;2024-01-06T01:59:05;85711.97;;;5.59;48.53
41312;BME280;27061;41.648;24.568;2024-01-06T02:01:33;85708.53;;;5.57;49.17
41312;BME280;27061;41.648;24.568;2024-01-06T02:04:01;85714.69;;;5.45;50.58
41312;BME280;27061;41.648;24.568;2024-01-06T02:06:28;85705.06;;;5.52;50.90
41312;BME280;27061;41.648;24.568;2024-01-06T02:08:55;85703.00;;;5.40;49.02
41312;BME280;27061;41.648;24.568;2024-01-06T02:11:23;85672.78;;;5.28;50.27
41312;BME280;27061;41.648;24.568;2024-01-06T02:13:51;85691.34;;;5.40;50.42
41312;BME280;27061;41.648;24.568;2024-01-06T02:16:18;85635.63;;;4.83;50.41
41312;BME280;27061;41.648;24.568;2024-01-06T02:18:45;85698.22;;;5.53;48.46
41312;BME280;27061;41.648;24.568;2024-01-06T02:21:14;85648.72;;;5.08;50.81
41312;BME280;27061;41.648;24.568;2024-01-06T02:23:41;85687.88;;;5.33;50.03
41312;BME280;27061;41.648;24.568;2024-01-06T02:26:10;85677.59;;;5.26;50.56
41312;BME280;27061;41.648;24.568;2024-01-06T02:28:37;85694.75;;;5.34;50.11
41312;BME280;27061;41.648;24.568;2024-01-06T02:31:04;85705.75;;;5.38;49.45
41312;BME280;27061;41.648;24.568;2024-01-06T02:33:32;85709.84;;;5.41;50.75
41312;BME280;27061;41.648;24.568;2024-01-06T02:35:59;85713.22;;;5.15;51.22
41312;BME280;27061;41.648;24.568;2024-01-06T02:38:26;85702.91;;;5.04;50.89
41312;BME280;27061;41.648;24.568;2024-01-06T02:40:54;85693.94;;;4.91;52.60
41312;BME280;27061;41.648;24.568;2024-01-06T02:43:21;85597.69;;;4.22;52.41
41312;BME280;27061;41.648;24.568;2024-01-06T02:45:50;85686.38;;;4.92;54.20
41312;BME280;27061;41.648;24.568;2024-01-06T02:48:17;85671.25;;;4.76;54.12
41312;BME280;27061;41.648;24.568;2024-01-06T02:50:45;85653.31;;;4.49;54.74
41312;BME280;27061;41.648;24.568;2024-01-06T02:53:12;85691.13;;;4.75;54.59
41312;BME280;27061;41.648;24.568;2024-01-06T02:55:40;85689.81;;;4.86;55.32
41312;BME280;27061;41.648;24.568;2024-01-06T02:58:07;85623.81;;;4.46;55.32
41312;BME280;27061;41.648;24.568;2024-01-06T03:00:34;85529.63;;;3.68;56.41
41312;BME280;27061;41.648;24.568;2024-01-06T03:03:02;85624.50;;;4.44;56.34
41312;BME280;27061;41.648;24.568;2024-01-06T03:05:30;85685.66;;;4.75;58.35
41312;BME280;27061;41.648;24.568;2024-01-06T03:07:58;85579.75;;;3.97;58.51
41312;BME280;27061;41.648;24.568;2024-01-06T03:10:26;85531.69;;;3.74;58.60
41312;BME280;27061;41.648;24.568;2024-01-06T03:12:53;85328.47;;;2.28;59.10
41312;BME280;27061;41.648;24.568;2024-01-06T03:15:21;85552.28;;;3.81;60.00
41312;BME280;27061;41.648;24.568;2024-01-06T03:17:49;85544.13;;;3.95;58.85
41312;BME280;27061;41.648;24.568;2024-01-06T03:20:17;85355.94;;;2.50;59.72
41312;BME280;27061;41.648;24.568;2024-01-06T03:22:44;85458.81;;;3.06;61.17
41312;BME280;27061;41.648;24.568;2024-01-06T03:25:12;85662.28;;;4.64;61.12
41312;BME280;27061;41.648;24.568;2024-01-06T03:27:39;85670.56;;;4.78;62.48
41312;BME280;27061;41.648;24.568;2024-01-06T03:30:07;85554.34;;;3.80;63.13
41312;BME280;27061;41.648;24.568;2024-01-06T03:32:34;85649.28;;;4.72;62.69
41312;BME280;27061;41.648;24.568;2024-01-06T03:35:02;85641.63;;;4.47;63.96
41312;BME280;27061;41.648;24.568;2024-01-06T03:37:29;85621.78;;;4.56;63.34
41312;BME280;27061;41.648;24.568;2024-01-06T03:39:57;85623.88;;;4.54;63.67
41312;BME280;27061;41.648;24.568;2024-01-06T03:42:24;85637.56;;;4.56;63.67
41312;BME280;27061;41.648;24.568;2024-01-06T03:44:51;85592.91;;;4.23;63.51
41312;BME280;27061;41.648;24.568;2024-01-06T03:47:19;85625.88;;;4.49;63.75
41312;BME280;27061;41.648;24.568;2024-01-06T03:49:46;85657.56;;;4.83;63.95
41312;BME280;27061;41.648;24.568;2024-01-06T03:52:13;85670.63;;;4.92;63.59
41312;BME280;27061;41.648;24.568;2024-01-06T03:54:41;85664.41;;;4.84;63.69
41312;BME280;27061;41.648;24.568;2024-01-06T03:57:08;85655.44;;;4.65;64.08
41312;BME280;27061;41.648;24.568;2024-01-06T03:59:36;85660.28;;;4.81;64.80
41312;BME280;27061;41.648;24.568;2024-01-06T04:02:03;85599.16;;;4.48;63.87
41312;BME280;27061;41.648;24.568;2024-01-06T04:04:30;85665.84;;;4.95;64.64
41312;BME280;27061;41.648;24.568;2024-01-06T04:06:58;85655.53;;;4.95;64.68
41312;BME280;27061;41.648;24.568;2024-01-06T04:09:25;85629.47;;;4.86;64.37
41312;BME280;27061;41.648;24.568;2024-01-06T04:11:57;85606.75;;;4.67;59.87
41312;BME280;27061;41.648;24.568;2024-01-06T04:14:25;85665.16;;;4.96;64.81
41312;BME280;27061;41.648;24.568;2024-01-06T04:16:52;85623.25;;;4.73;64.73
41312;BME280;27061;41.648;24.568;2024-01-06T04:19:20;85661.06;;;5.09;64.47
41312;BME280;27061;41.648;24.568;2024-01-06T04:21:47;85658.34;;;5.18;63.77
41312;BME280;27061;41.648;24.568;2024-01-06T04:24:15;85602.69;;;4.83;64.08
41312;BME280;27061;41.648;24.568;2024-01-06T04:26:42;85653.56;;;5.32;58.06
41312;BME280;27061;41.648;24.568;2024-01-06T04:29:11;85607.53;;;4.86;62.44
41312;BME280;27061;41.648;24.568;2024-01-06T04:31:40;85632.25;;;5.02;63.73
41312;BME280;27061;41.648;24.568;2024-01-06T04:34:08;85657.00;;;5.27;63.31
41312;BME280;27061;41.648;24.568;2024-01-06T04:36:36;85575.91;;;4.63;63.79
41312;BME280;27061;41.648;24.568;2024-01-06T04:39:03;85630.22;;;5.19;63.77
41312;BME280;27061;41.648;24.568;2024-01-06T04:41:31;85580.75;;;4.78;63.99
41312;BME280;27061;41.648;24.568;2024-01-06T04:43:58;85609.56;;;4.92;64.25
41312;BME280;27061;41.648;24.568;2024-01-06T04:46:25;85644.63;;;5.24;64.13
41312;BME280;27061;41.648;24.568;2024-01-06T04:48:52;85665.25;;;5.37;63.87
41312;BME280;27061;41.648;24.568;2024-01-06T04:51:20;85673.50;;;5.45;63.08
41312;BME280;27061;41.648;24.568;2024-01-06T04:53:47;85650.13;;;5.30;63.37
41312;BME280;27061;41.648;24.568;2024-01-06T04:56:14;85606.81;;;4.90;63.76
41312;BME280;27061;41.648;24.568;2024-01-06T04:58:42;85610.22;;;4.80;59.52
41312;BME280;27061;41.648;24.568;2024-01-06T05:01:09;85631.56;;;5.12;62.63
41312;BME280;27061;41.648;24.568;2024-01-06T05:03:37;85662.50;;;5.43;63.51
41312;BME280;27061;41.648;24.568;2024-01-06T05:06:04;85621.28;;;5.08;63.52
41312;BME280;27061;41.648;24.568;2024-01-06T05:08:32;85658.41;;;5.52;62.71
41312;BME280;27061;41.648;24.568;2024-01-06T05:10:59;85663.91;;;5.56;62.69
41312;BME280;27061;41.648;24.568;2024-01-06T05:13:27;85641.91;;;5.38;62.56
41312;BME280;27061;41.648;24.568;2024-01-06T05:15:54;85669.41;;;5.72;61.98
41312;BME280;27061;41.648;24.568;2024-01-06T05:18:21;85679.72;;;5.66;62.29
41312;BME280;27061;41.648;24.568;2024-01-06T05:20:49;85685.88;;;5.72;61.90
41312;BME280;27061;41.648;24.568;2024-01-06T05:23:16;85665.97;;;5.68;61.49
41312;BME280;27061;41.648;24.568;2024-01-06T05:25:44;85661.16;;;5.66;61.02
41312;BME280;27061;41.648;24.568;2024-01-06T05:28:11;85664.59;;;5.63;62.54
41312;BME280;27061;41.648;24.568;2024-01-06T05:30:38;85669.41;;;5.56;63.21
41312;BME280;27061;41.648;24.568;2024-01-06T05:33:09;85648.06;;;5.32;63.47
41312;BME280;27061;41.648;24.568;2024-01-06T05:35:40;85688.63;;;5.58;64.17
41312;BME280;27061;41.648;24.568;2024-01-06T05:38:08;85699.63;;;5.60;64.04
41312;BME280;27061;41.648;24.568;2024-01-06T05:40:35;85690.69;;;5.60;64.75
41312;BME280;27061;41.648;24.568;2024-01-06T05:43:02;85677.66;;;5.74;64.01
41312;BME280;27061;41.648;24.568;2024-01-06T05:45:29;85628.84;;;5.22;64.56
41312;BME280;27061;41.648;24.568;2024-01-06T05:47:57;85639.84;;;5.42;64.22
41312;BME280;27061;41.648;24.568;2024-01-06T05:50:25;85621.31;;;5.29;64.55
41312;BME280;27061;41.648;24.568;2024-01-06T05:52:52;85681.78;;;5.85;64.21
41312;BME280;27061;41.648;24.568;2024-01-06T05:55:19;85603.44;;;5.11;65.20
41312;BME280;27061;41.648;24.568;2024-01-06T05:57:46;85676.28;;;5.87;65.06
41312;BME280;27061;41.648;24.568;2024-01-06T06:00:14;85521.72;;;4.47;65.66
41312;BME280;27061;41.648;24.568;2024-01-06T06:02:42;85635.06;;;5.39;66.93
41312;BME280;27061;41.648;24.568;2024-01-06T06:05:09;85636.41;;;5.32;66.95
41312;BME280;27061;41.648;24.568;2024-01-06T06:07:37;85665.28;;;5.73;66.98
41312;BME280;27061;41.648;24.568;2024-01-06T06:10:10;85646.03;;;5.53;67.70
41312;BME280;27061;41.648;24.568;2024-01-06T06:12:38;85640.56;;;5.39;68.59
41312;BME280;27061;41.648;24.568;2024-01-06T06:15:06;85659.13;;;5.61;68.33
41312;BME280;27061;41.648;24.568;2024-01-06T06:17:34;85574.63;;;5.06;68.81
41312;BME280;27061;41.648;24.568;2024-01-06T06:20:02;85651.56;;;5.67;68.93
41312;BME280;27061;41.648;24.568;2024-01-06T06:22:29;85650.19;;;5.80;68.15
41312;BME280;27061;41.648;24.568;2024-01-06T06:24:58;85610.34;;;5.53;67.80
41312;BME280;27061;41.648;24.568;2024-01-06T06:27:26;85591.13;;;5.55;65.04
41312;BME280;27061;41.648;24.568;2024-01-06T06:29:54;85643.31;;;6.16;63.83
41312;BME280;27061;41.648;24.568;2024-01-06T06:32:23;85639.91;;;6.23;63.57
41312;BME280;27061;41.648;24.568;2024-01-06T06:34:52;85615.84;;;6.18;62.21
41312;BME280;27061;41.648;24.568;2024-01-06T06:37:20;85610.31;;;6.26;61.90
41312;BME280;27061;41.648;24.568;2024-01-06T06:39:48;85653.56;;;6.64;62.25
41312;BME280;27061;41.648;24.568;2024-01-06T06:42:15;85650.78;;;6.70;61.62
41312;BME280;27061;41.648;24.568;2024-01-06T06:44:43;85645.94;;;6.81;62.46
41312;BME280;27061;41.648;24.568;2024-01-06T06:47:10;85566.38;;;6.14;62.44
41312;BME280;27061;41.648;24.568;2024-01-06T06:49:37;85473.06;;;5.55;61.80
41312;BME280;27061;41.648;24.568;2024-01-06T06:52:05;85639.00;;;6.96;61.71
41312;BME280;27061;41.648;24.568;2024-01-06T06:54:34;85628.00;;;6.92;61.75
41312;BME280;27061;41.648;24.568;2024-01-06T06:57:04;85480.53;;;5.97;61.47
41312;BME280;27061;41.648;24.568;2024-01-06T06:59:32;85559.38;;;6.53;61.22
41312;BME280;27061;41.648;24.568;2024-01-06T07:01:59;85575.81;;;6.74;60.85
41312;BME280;27061;41.648;24.568;2024-01-06T07:04:27;85616.91;;;7.16;59.93
41312;BME280;27061;41.648;24.568;2024-01-06T07:06:54;85612.03;;;7.23;59.65
41312;BME280;27061;41.648;24.568;2024-01-06T07:09:22;85592.13;;;7.10;59.62
41312;BME280;27061;41.648;24.568;2024-01-06T07:11:50;85595.53;;;7.21;58.99
41312;BME280;27061;41.648;24.568;2024-01-06T07:14:18;85498.84;;;6.57;59.28
41312;BME280;27061;41.648;24.568;2024-01-06T07:16:46;85511.19;;;6.67;59.01
41312;BME280;27061;41.648;24.568;2024-01-06T07:19:15;85629.69;;;7.66;58.52
41312;BME280;27061;41.648;24.568;2024-01-06T07:21:42;85478.25;;;6.50;58.11
41312;BME280;27061;41.648;24.568;2024-01-06T07:24:10;85586.50;;;7.34;58.52
41312;BME280;27061;41.648;24.568;2024-01-06T07:26:37;85430.97;;;6.23;57.84
41312;BME280;27061;41.648;24.568;2024-01-06T07:29:05;85389.88;;;5.99;57.58
41312;BME280;27061;41.648;24.568;2024-01-06T07:31:34;85619.19;;;7.93;56.83
41312;BME280;27061;41.648;24.568;2024-01-06T07:34:04;85497.28;;;6.93;56.48
41312;BME280;27061;41.648;24.568;2024-01-06T07:36:31;85557.41;;;7.60;55.75
41312;BME280;27061;41.648;24.568;2024-01-06T07:38:59;85512.28;;;7.20;55.54
41312;BME280;27061;41.648;24.568;2024-01-06T07:41:26;85611.47;;;8.08;54.36
41312;BME280;27061;41.648;24.568;2024-01-06T07:43:54;85608.69;;;8.10;53.88
41312;BME280;27061;41.648;24.568;2024-01-06T07:46:21;85579.28;;;7.82;54.06
41312;BME280;27061;41.648;24.568;2024-01-06T07:48:49;85634.03;;;8.29;52.91
41312;BME280;27061;41.648;24.568;2024-01-06T07:51:17;85615.53;;;8.17;54.84
41312;BME280;27061;41.648;24.568;2024-01-06T07:53:45;85484.13;;;7.08;55.09
41312;BME280;27061;41.648;24.568;2024-01-06T07:56:12;85465.50;;;7.10;55.46
41312;BME280;27061;41.648;24.568;2024-01-06T07:58:40;85584.59;;;8.06;55.18
41312;BME280;27061;41.648;24.568;2024-01-06T08:01:07;85566.75;;;7.97;55.55
41312;BME280;27061;41.648;24.568;2024-01-06T08:03:35;85536.59;;;7.81;56.17
41312;BME280;27061;41.648;24.568;2024-01-06T08:06:03;85647.50;;;8.69;56.00
41312;BME280;27061;41.648;24.568;2024-01-06T08:08:31;85613.94;;;8.44;55.74
41312;BME280;27061;41.648;24.568;2024-01-06T08:10:58;85580.28;;;8.28;56.01
41312;BME280;27061;41.648;24.568;2024-01-06T08:13:26;85631.56;;;8.76;56.39
41312;BME280;27061;41.648;24.568;2024-01-06T08:15:53;85610.34;;;8.58;56.58
41312;BME280;27061;41.648;24.568;2024-01-06T08:18:21;85627.53;;;8.65;57.38
41312;BME280;27061;41.648;24.568;2024-01-06T08:20:49;85586.41;;;8.38;57.13
41312;BME280;27061;41.648;24.568;2024-01-06T08:23:17;85643.69;;;9.03;57.18
41312;BME280;27061;41.648;24.568;2024-01-06T08:25:48;85624.50;;;8.91;57.06
41312;BME280;27061;41.648;24.568;2024-01-06T08:28:15;85501.97;;;7.98;58.55
41312;BME280;27061;41.648;24.568;2024-01-06T08:30:43;85626.56;;;8.91;58.53
41312;BME280;27061;41.648;24.568;2024-01-06T08:33:11;85673.84;;;9.26;57.93
41312;BME280;27061;41.648;24.568;2024-01-06T08:35:39;85493.00;;;8.02;59.87
41312;BME280;27061;41.648;24.568;2024-01-06T08:38:07;85494.50;;;7.87;59.94
41312;BME280;27061;41.648;24.568;2024-01-06T08:40:35;85662.84;;;9.22;60.51
41312;BME280;27061;41.648;24.568;2024-01-06T08:43:03;85648.22;;;9.31;59.96
41312;BME280;27061;41.648;24.568;2024-01-06T08:45:31;85566.03;;;8.74;60.46
41312;BME280;27061;41.648;24.568;2024-01-06T08:47:58;85629.19;;;9.05;61.59
41312;BME280;27061;41.648;24.568;2024-01-06T08:50:26;85320.06;;;6.64;61.82
41312;BME280;27061;41.648;24.568;2024-01-06T08:52:54;85629.75;;;9.15;61.58
41312;BME280;27061;41.648;24.568;2024-01-06T08:55:21;85592.03;;;8.94;61.96
41312;BME280;27061;41.648;24.568;2024-01-06T08:57:48;85382.72;;;7.37;61.93
41312;BME280;27061;41.648;24.568;2024-01-06T09:00:16;85621.88;;;9.40;61.51
41312;BME280;27061;41.648;24.568;2024-01-06T09:02:44;85452.81;;;8.19;61.00
41312;BME280;27061;41.648;24.568;2024-01-06T09:05:12;85461.66;;;8.34;60.45
41312;BME280;27061;41.648;24.568;2024-01-06T09:07:39;85501.31;;;8.61;61.37
41312;BME280;27061;41.648;24.568;2024-01-06T09:10:07;85412.22;;;8.14;59.30
41312;BME280;27061;41.648;24.568;2024-01-06T09:12:36;85487.50;;;8.65;61.01
41312;BME280;27061;41.648;24.568;2024-01-06T09:15:04;85397.63;;;8.25;59.36
41312;BME280;27061;41.648;24.568;2024-01-06T09:17:32;85450.28;;;8.60;60.04
41312;BME280;27061;41.648;24.568;2024-01-06T09:20:02;85544.63;;;9.32;60.08
41312;BME280;27061;41.648;24.568;2024-01-06T09:22:29;85553.28;;;9.55;61.29
41312;BME280;27061;41.648;24.568;2024-01-06T09:24:57;85549.63;;;9.69;60.08
41312;BME280;27061;41.648;24.568;2024-01-06T09:27:24;85434.94;;;8.75;61.92
41312;BME280;27061;41.648;24.568;2024-01-06T09:29:52;85576.84;;;9.97;62.15
41312;BME280;27061;41.648;24.568;2024-01-06T09:32:20;85547.91;;;9.92;60.44
41312;BME280;27061;41.648;24.568;2024-01-06T09:34:50;85526.06;;;9.74;60.11
41312;BME280;27061;41.648;24.568;2024-01-06T09:37:17;85564.22;;;10.08;61.41
41312;BME280;27061;41.648;24.568;2024-01-06T09:39:45;85430.06;;;9.25;59.38
41312;BME280;27061;41.648;24.568;2024-01-06T09:42:12;85532.28;;;10.17;59.65
41312;BME280;27061;41.648;24.568;2024-01-06T09:44:40;85469.63;;;9.59;59.79
41312;BME280;27061;41.648;24.568;2024-01-06T09:47:11;85541.91;;;10.22;59.25
41312;BME280;27061;41.648;24.568;2024-01-06T09:49:39;85493.69;;;10.09;58.70
41312;BME280;27061;41.648;24.568;2024-01-06T09:52:19;85455.50;;;9.77;59.04
41312;BME280;27061;41.648;24.568;2024-01-06T09:54:53;85545.00;;;10.43;57.57
41312;BME280;27061;41.648;24.568;2024-01-06T09:57:23;85497.00;;;10.20;58.75
41312;BME280;27061;41.648;24.568;2024-01-06T09:59:52;85463.41;;;10.01;59.31
41312;BME280;27061;41.648;24.568;2024-01-06T10:02:20;85372.94;;;9.57;58.50
41312;BME280;27061;41.648;24.568;2024-01-06T10:04:50;85490.22;;;10.50;57.14
41312;BME280;27061;41.648;24.568;2024-01-06T10:07:18;85460.16;;;10.30;57.45
41312;BME280;27061;41.648;24.568;2024-01-06T10:09:46;85482.75;;;10.42;58.29
41312;BME280;27061;41.648;24.568;2024-01-06T10:12:13;85510.91;;;10.55;58.10
41312;BME280;27061;41.648;24.568;2024-01-06T10:14:41;85500.56;;;10.53;59.25
41312;BME280;27061;41.648;24.568;2024-01-06T10:17:08;85495.63;;;10.58;58.41
41312;BME280;27061;41.648;24.568;2024-01-06T10:19:36;85378.13;;;9.77;57.45
41312;BME280;27061;41.648;24.568;2024-01-06T10:22:05;85491.69;;;10.47;59.31
41312;BME280;27061;41.648;24.568;2024-01-06T10:24:37;85473.09;;;10.41;59.35
41312;BME280;27061;41.648;24.568;2024-01-06T10:27:05;85491.22;;;10.71;59.57
41312;BME280;27061;41.648;24.568;2024-01-06T10:29:36;85484.31;;;10.70;58.74
41312;BME280;27061;41.648;24.568;2024-01-06T10:32:04;85508.50;;;11.09;57.40
41312;BME280;27061;41.648;24.568;2024-01-06T10:34:32;85328.66;;;9.61;59.61
41312;BME280;27061;41.648;24.568;2024-01-06T10:37:00;85477.22;;;10.79;59.01
41312;BME280;27061;41.648;24.568;2024-01-06T10:39:28;85460.84;;;10.67;58.76
41312;BME280;27061;41.648;24.568;2024-01-06T10:41:57;85497.69;;;10.94;59.22
41312;BME280;27061;41.648;24.568;2024-01-06T10:44:26;85364.25;;;9.79;59.67
41312;BME280;27061;41.648;24.568;2024-01-06T10:46:57;85448.47;;;10.27;59.22
41312;BME280;27061;41.648;24.568;2024-01-06T10:49:26;85344.16;;;9.43;60.59
41312;BME280;27061;41.648;24.568;2024-01-06T10:51:58;85481.44;;;10.39;60.47
41312;BME280;27061;41.648;24.568;2024-01-06T10:54:27;85374.41;;;9.51;61.50
41312;BME280;27061;41.648;24.568;2024-01-06T10:56:57;85210.13;;;8.23;61.41
41312;BME280;27061;41.648;24.568;2024-01-06T10:59:26;85476.63;;;10.38;61.40
41312;BME280;27061;41.648;24.568;2024-01-06T11:01:58;85421.75;;;10.11;61.21
41312;BME280;27061;41.648;24.568;2024-01-06T11:04:26;85358.00;;;9.41;61.27
41312;BME280;27061;41.648;24.568;2024-01-06T11:06:55;85426.91;;;9.93;60.70
41312;BME280;27061;41.648;24.568;2024-01-06T11:09:28;85306.78;;;9.07;60.95
41312;BME280;27061;41.648;24.568;2024-01-06T11:12:01;85416.69;;;9.85;60.92
41312;BME280;27061;41.648;24.568;2024-01-06T11:14:28;85414.06;;;9.77;60.90
41312;BME280;27061;41.648;24.568;2024-01-06T11:16:56;85400.44;;;9.65;61.01
41312;BME280;27061;41.648;24.568;2024-01-06T11:22:29;85471.53;;;10.11;62.21
41312;BME280;27061;41.648;24.568;2024-01-06T11:25:07;85434.25;;;10.08;61.92
41312;BME280;27061;41.648;24.568;2024-01-06T11:27:36;85433.19;;;9.89;61.88
41312;BME280;27061;41.648;24.568;2024-01-06T11:30:04;85276.44;;;8.62;61.97
41312;BME280;27061;41.648;24.568;2024-01-06T11:32:39;85329.47;;;9.12;61.99
41312;BME280;27061;41.648;24.568;2024-01-06T11:35:13;85372.78;;;9.65;61.69
41312;BME280;27061;41.648;24.568;2024-01-06T11:43:00;85397.38;;;9.83;62.38
41312;BME280;27061;41.648;24.568;2024-01-06T11:45:28;85442.47;;;10.12;61.52
41312;BME280;27061;41.648;24.568;2024-01-06T11:48:01;85362.50;;;9.61;61.33
41312;BME280;27061;41.648;24.568;2024-01-06T11:50:32;85364.41;;;9.71;61.53
41312;BME280;27061;41.648;24.568;2024-01-06T11:53:00;85371.47;;;9.64;63.07
41312;BME280;27061;41.648;24.568;2024-01-06T11:55:27;85438.94;;;10.18;60.73
41312;BME280;27061;41.648;24.568;2024-01-06T11:57:55;85390.13;;;9.63;61.45
41312;BME280;27061;41.648;24.568;2024-01-06T12:00:23;85409.63;;;9.94;61.17
41312;BME280;27061;41.648;24.568;2024-01-06T12:02:58;85376.50;;;9.51;61.51
41312;BME280;27061;41.648;24.568;2024-01-06T12:05:27;85376.56;;;9.47;61.50
41312;BME280;27061;41.648;24.568;2024-01-06T12:08:02;85398.94;;;9.72;61.79
41312;BME280;27061;41.648;24.568;2024-01-06T12:10:33;85345.22;;;9.22;61.71
41312;BME280;27061;41.648;24.568;2024-01-06T12:13:02;85408.16;;;9.58;63.14
41312;BME280;27061;41.648;24.568;2024-01-06T12:15:31;85397.28;;;9.46;62.36
41312;BME280;27061;41.648;24.568;2024-01-06T12:18:03;85330.44;;;8.96;63.14
41312;BME280;27061;41.648;24.568;2024-01-06T12:20:31;85415.88;;;9.51;63.28
41312;BME280;27061;41.648;24.568;2024-01-06T12:22:59;85413.72;;;9.54;62.81
41312;BME280;27061;41.648;24.568;2024-01-06T12:25:27;85366.81;;;9.09;64.01
41312;BME280;27061;41.648;24.568;2024-01-06T12:28:00;85410.56;;;9.37;64.69
41312;BME280;27061;41.648;24.568;2024-01-06T12:30:28;85416.94;;;9.28;64.40
41312;BME280;27061;41.648;24.568;2024-01-06T12:33:00;85379.94;;;9.08;64.84
41312;BME280;27061;41.648;24.568;2024-01-06T12:35:28;85395.47;;;9.32;65.67
41312;BME280;27061;41.648;24.568;2024-01-06T12:37:56;85404.94;;;9.43;64.84
41312;BME280;27061;41.648;24.568;2024-01-06T12:40:23;85404.38;;;9.35;65.13
41312;BME280;27061;41.648;24.568;2024-01-06T12:42:50;85338.19;;;8.86;65.00
41312;BME280;27061;41.648;24.568;2024-01-06T12:45:18;85389.31;;;9.28;65.36
41312;BME280;27061;41.648;24.568;2024-01-06T12:47:45;85358.16;;;8.88;66.07
41312;BME280;27061;41.648;24.568;2024-01-06T12:50:16;85409.03;;;9.46;65.31
41312;BME280;27061;41.648;24.568;2024-01-06T12:52:43;85400.59;;;9.54;64.51
41312;BME280;27061;41.648;24.568;2024-01-06T12:55:12;85390.00;;;9.28;65.01
41312;BME280;27061;41.648;24.568;2024-01-06T12:57:42;85377.63;;;9.23;64.71
41312;BME280;27061;41.648;24.568;2024-01-06T13:00:10;85387.16;;;9.32;64.99
41312;BME280;27061;41.648;24.568;2024-01-06T13:02:39;85394.03;;;9.33;65.04
41312;BME280;27061;41.648;24.568;2024-01-06T13:05:07;85388.59;;;9.29;65.23
41312;BME280;27061;41.648;24.568;2024-01-06T13:07:39;85416.09;;;9.35;65.63
41312;BME280;27061;41.648;24.568;2024-01-06T13:10:07;85390.50;;;9.39;66.54
41312;BME280;27061;41.648;24.568;2024-01-06T13:12:34;85356.31;;;9.17;66.33